sensor_id;sensor_type;location;lat;lon;timestamp;P1;durP1;ratioP1;P2;durP2;ratioP2
23617;SDS011;18207;32.078;34.818;2023-04-06T00:01:17;0.77;;;0.45;;
23617;SDS011;18207;32.078;34.818;2023-04-06T00:03:48;0.95;;;0.63;;
23617;SDS011;18207;32.078;34.818;2023-04-06T00:06:21;1.05;;;0.63;;
23617;SDS011;18207;32.078;34.818;2023-04-06T00:08:51;0.68;;;0.50;;
23617;SDS011;18207;32.078;34.818;2023-04-06T00:11:23;1.00;;;0.52;;
23617;SDS011;18207;32.078;34.818;2023-04-06T00:13:53;0.70;;;0.50;;
23617;SDS011;18207;32.078;34.818;2023-04-06T00:16:25;0.95;;;0.60;;
23617;SDS011;18207;32.078;34.818;2023-04-06T00:18:56;0.65;;;0.65;;
23617;SDS011;18207;32.078;34.818;2023-04-06T00:21:28;0.82;;;0.50;;
23617;SDS011;18207;32.078;34.818;2023-04-06T00:23:59;0.95;;;0.60;;
23617;SDS011;18207;32.078;34.818;2023-04-06T00:26:30;0.40;;;0.32;;
23617;SDS011;18207;32.078;34.818;2023-04-06T00:29:00;1.00;;;0.57;;
23617;SDS011;18207;32.078;34.818;2023-04-06T00:31:31;0.55;;;0.55;;
23617;SDS011;18207;32.078;34.818;2023-04-06T00:34:02;0.35;;;0.35;;
23617;SDS011;18207;32.078;34.818;2023-04-06T00:36:34;0.88;;;0.63;;
23617;SDS011;18207;32.078;34.818;2023-04-06T00:39:05;0.70;;;0.47;;
23617;SDS011;18207;32.078;34.818;2023-04-06T00:41:35;0.63;;;0.50;;
23617;SDS011;18207;32.078;34.818;2023-04-06T00:44:06;1.65;;;0.63;;
23617;SDS011;18207;32.078;34.818;2023-04-06T00:46:37;0.95;;;0.60;;
23617;SDS011;18207;32.078;34.818;2023-04-06T00:49:07;1.10;;;0.82;;
23617;SDS011;18207;32.078;34.818;2023-04-06T00:51:40;1.00;;;0.77;;
23617;SDS011;18207;32.078;34.818;2023-04-06T00:54:10;1.05;;;0.70;;
23617;SDS011;18207;32.078;34.818;2023-04-06T00:56:41;1.38;;;0.95;;
23617;SDS011;18207;32.078;34.818;2023-04-06T00:59:12;1.23;;;0.98;;
23617;SDS011;18207;32.078;34.818;2023-04-06T01:01:45;0.85;;;0.80;;
23617;SDS011;18207;32.078;34.818;2023-04-06T01:04:15;1.77;;;1.10;;
23617;SDS011;18207;32.078;34.818;2023-04-06T01:06:47;2.10;;;1.10;;
23617;SDS011;18207;32.078;34.818;2023-04-06T01:09:17;1.08;;;0.93;;
23617;SDS011;18207;32.078;34.818;2023-04-06T01:11:48;1.17;;;0.90;;
23617;SDS011;18207;32.078;34.818;2023-04-06T01:14:18;1.83;;;1.17;;
23617;SDS011;18207;32.078;34.818;2023-04-06T01:16:49;1.25;;;1.10;;
23617;SDS011;18207;32.078;34.818;2023-04-06T01:19:21;1.38;;;0.80;;
23617;SDS011;18207;32.078;34.818;2023-04-06T01:21:54;1.63;;;1.15;;
23617;SDS011;18207;32.078;34.818;2023-04-06T01:24:26;1.95;;;1.08;;
23617;SDS011;18207;32.078;34.818;2023-04-06T01:26:57;0.98;;;0.88;;
23617;SDS011;18207;32.078;34.818;2023-04-06T01:29:27;1.25;;;0.77;;
23617;SDS011;18207;32.078;34.818;2023-04-06T01:31:57;2.10;;;1.05;;
23617;SDS011;18207;32.078;34.818;2023-04-06T01:34:28;1.25;;;1.15;;
23617;SDS011;18207;32.078;34.818;2023-04-06T01:36:58;0.85;;;0.85;;
23617;SDS011;18207;32.078;34.818;2023-04-06T01:39:30;1.77;;;0.90;;
23617;SDS011;18207;32.078;34.818;2023-04-06T01:42:01;1.70;;;1.20;;
23617;SDS011;18207;32.078;34.818;2023-04-06T01:44:32;1.35;;;0.82;;
23617;SDS011;18207;32.078;34.818;2023-04-06T01:47:02;1.20;;;0.80;;
23617;SDS011;18207;32.078;34.818;2023-04-06T01:49:32;1.25;;;1.00;;
23617;SDS011;18207;32.078;34.818;2023-04-06T01:52:03;1.25;;;1.15;;
23617;SDS011;18207;32.078;34.818;2023-04-06T01:54:36;1.40;;;1.13;;
23617;SDS011;18207;32.078;34.818;2023-04-06T01:57:06;1.63;;;0.98;;
23617;SDS011;18207;32.078;34.818;2023-04-06T01:59:37;1.10;;;1.00;;
23617;SDS011;18207;32.078;34.818;2023-04-06T02:02:07;1.52;;;1.08;;
23617;SDS011;18207;32.078;34.818;2023-04-06T02:04:39;1.85;;;0.90;;
23617;SDS011;18207;32.078;34.818;2023-04-06T02:07:09;1.00;;;0.90;;
23617;SDS011;18207;32.078;34.818;2023-04-06T02:09:41;1.08;;;0.98;;
23617;SDS011;18207;32.078;34.818;2023-04-06T02:12:12;1.63;;;1.00;;
23617;SDS011;18207;32.078;34.818;2023-04-06T02:14:42;1.38;;;1.27;;
23617;SDS011;18207;32.078;34.818;2023-04-06T02:17:13;1.02;;;0.68;;
23617;SDS011;18207;32.078;34.818;2023-04-06T02:19:43;1.52;;;1.10;;
23617;SDS011;18207;32.078;34.818;2023-04-06T02:22:14;2.03;;;1.08;;
23617;SDS011;18207;32.078;34.818;2023-04-06T02:24:46;2.05;;;1.00;;
23617;SDS011;18207;32.078;34.818;2023-04-06T02:27:16;1.00;;;0.82;;
23617;SDS011;18207;32.078;34.818;2023-04-06T02:29:46;2.20;;;1.17;;
23617;SDS011;18207;32.078;34.818;2023-04-06T02:32:17;1.70;;;1.00;;
23617;SDS011;18207;32.078;34.818;2023-04-06T02:34:47;1.45;;;1.00;;
23617;SDS011;18207;32.078;34.818;2023-04-06T02:37:18;1.05;;;0.95;;
23617;SDS011;18207;32.078;34.818;2023-04-06T02:39:50;2.33;;;1.08;;
23617;SDS011;18207;32.078;34.818;2023-04-06T02:42:20;0.82;;;0.80;;
23617;SDS011;18207;32.078;34.818;2023-04-06T02:44:50;2.38;;;0.90;;
23617;SDS011;18207;32.078;34.818;2023-04-06T02:47:22;1.23;;;0.95;;
23617;SDS011;18207;32.078;34.818;2023-04-06T02:49:52;0.98;;;0.73;;
23617;SDS011;18207;32.078;34.818;2023-04-06T02:52:24;1.27;;;0.88;;
23617;SDS011;18207;32.078;34.818;2023-04-06T02:54:56;1.60;;;0.80;;
23617;SDS011;18207;32.078;34.818;2023-04-06T02:57:27;1.52;;;1.00;;
23617;SDS011;18207;32.078;34.818;2023-04-06T02:59:57;1.02;;;0.80;;
23617;SDS011;18207;32.078;34.818;2023-04-06T03:02:27;1.42;;;1.08;;
23617;SDS011;18207;32.078;34.818;2023-04-06T03:04:57;1.05;;;0.90;;
23617;SDS011;18207;32.078;34.818;2023-04-06T03:07:29;3.25;;;1.30;;
23617;SDS011;18207;32.078;34.818;2023-04-06T03:10:02;1.30;;;1.10;;
23617;SDS011;18207;32.078;34.818;2023-04-06T03:12:34;1.15;;;1.00;;
23617;SDS011;18207;32.078;34.818;2023-04-06T03:15:05;1.70;;;1.00;;
23617;SDS011;18207;32.078;34.818;2023-04-06T03:17:36;2.38;;;1.00;;
23617;SDS011;18207;32.078;34.818;2023-04-06T03:20:08;2.33;;;1.00;;
23617;SDS011;18207;32.078;34.818;2023-04-06T03:22:39;0.80;;;0.70;;
23617;SDS011;18207;32.078;34.818;2023-04-06T03:25:12;2.20;;;1.02;;
23617;SDS011;18207;32.078;34.818;2023-04-06T03:27:42;2.33;;;1.00;;
23617;SDS011;18207;32.078;34.818;2023-04-06T03:30:12;1.35;;;0.77;;
23617;SDS011;18207;32.078;34.818;2023-04-06T03:32:44;0.93;;;0.82;;
23617;SDS011;18207;32.078;34.818;2023-04-06T03:35:15;3.50;;;1.38;;
23617;SDS011;18207;32.078;34.818;2023-04-06T03:37:45;1.40;;;1.00;;
23617;SDS011;18207;32.078;34.818;2023-04-06T03:40:18;1.15;;;0.93;;
23617;SDS011;18207;32.078;34.818;2023-04-06T03:42:49;2.05;;;1.30;;
23617;SDS011;18207;32.078;34.818;2023-04-06T03:45:19;1.40;;;1.05;;
23617;SDS011;18207;32.078;34.818;2023-04-06T03:47:50;1.20;;;0.90;;
23617;SDS011;18207;32.078;34.818;2023-04-06T03:50:20;1.05;;;0.80;;
23617;SDS011;18207;32.078;34.818;2023-04-06T03:52:50;1.92;;;1.00;;
23617;SDS011;18207;32.078;34.818;2023-04-06T03:55:23;1.50;;;1.13;;
23617;SDS011;18207;32.078;34.818;2023-04-06T03:57:54;1.98;;;1.05;;
23617;SDS011;18207;32.078;34.818;2023-04-06T04:00:24;1.67;;;0.88;;
23617;SDS011;18207;32.078;34.818;2023-04-06T04:02:55;1.48;;;0.77;;
23617;SDS011;18207;32.078;34.818;2023-04-06T04:05:27;1.27;;;0.95;;
23617;SDS011;18207;32.078;34.818;2023-04-06T04:07:58;1.25;;;1.05;;
23617;SDS011;18207;32.078;34.818;2023-04-06T04:10:31;2.78;;;1.10;;
23617;SDS011;18207;32.078;34.818;2023-04-06T04:13:00;1.23;;;1.13;;
23617;SDS011;18207;32.078;34.818;2023-04-06T04:15:31;1.33;;;1.00;;
23617;SDS011;18207;32.078;34.818;2023-04-06T04:18:02;1.40;;;1.15;;
23617;SDS011;18207;32.078;34.818;2023-04-06T04:20:33;2.10;;;0.98;;
23617;SDS011;18207;32.078;34.818;2023-04-06T04:23:02;1.30;;;1.00;;
23617;SDS011;18207;32.078;34.818;2023-04-06T04:25:34;1.80;;;1.10;;
23617;SDS011;18207;32.078;34.818;2023-04-06T04:28:05;2.00;;;1.02;;
23617;SDS011;18207;32.078;34.818;2023-04-06T04:30:35;1.50;;;1.20;;
23617;SDS011;18207;32.078;34.818;2023-04-06T04:33:06;1.27;;;1.17;;
23617;SDS011;18207;32.078;34.818;2023-04-06T04:35:37;2.10;;;1.20;;
23617;SDS011;18207;32.078;34.818;2023-04-06T04:38:07;1.55;;;1.15;;
23617;SDS011;18207;32.078;34.818;2023-04-06T04:40:39;2.00;;;1.10;;
23617;SDS011;18207;32.078;34.818;2023-04-06T04:43:10;1.67;;;1.02;;
23617;SDS011;18207;32.078;34.818;2023-04-06T04:45:40;0.85;;;0.85;;
23617;SDS011;18207;32.078;34.818;2023-04-06T04:48:10;1.88;;;1.00;;
23617;SDS011;18207;32.078;34.818;2023-04-06T04:50:40;2.03;;;1.20;;
23617;SDS011;18207;32.078;34.818;2023-04-06T04:53:10;1.20;;;0.85;;
23617;SDS011;18207;32.078;34.818;2023-04-06T04:55:42;1.95;;;1.10;;
23617;SDS011;18207;32.078;34.818;2023-04-06T04:58:12;1.70;;;0.93;;
23617;SDS011;18207;32.078;34.818;2023-04-06T05:00:43;2.80;;;1.15;;
23617;SDS011;18207;32.078;34.818;2023-04-06T05:03:14;2.03;;;0.95;;
23617;SDS011;18207;32.078;34.818;2023-04-06T05:05:50;1.67;;;1.00;;
23617;SDS011;18207;32.078;34.818;2023-04-06T05:08:21;1.70;;;1.00;;
23617;SDS011;18207;32.078;34.818;2023-04-06T05:10:54;1.20;;;1.00;;
23617;SDS011;18207;32.078;34.818;2023-04-06T05:13:24;2.35;;;1.30;;
23617;SDS011;18207;32.078;34.818;2023-04-06T05:15:54;1.63;;;1.08;;
23617;SDS011;18207;32.078;34.818;2023-04-06T05:18:25;1.13;;;0.93;;
23617;SDS011;18207;32.078;34.818;2023-04-06T05:20:57;2.60;;;1.10;;
23617;SDS011;18207;32.078;34.818;2023-04-06T05:23:39;1.38;;;1.25;;
23617;SDS011;18207;32.078;34.818;2023-04-06T05:26:12;1.75;;;1.00;;
23617;SDS011;18207;32.078;34.818;2023-04-06T05:28:42;1.65;;;1.30;;
23617;SDS011;18207;32.078;34.818;2023-04-06T05:31:13;1.45;;;1.30;;
23617;SDS011;18207;32.078;34.818;2023-04-06T05:33:43;2.53;;;1.27;;
23617;SDS011;18207;32.078;34.818;2023-04-06T05:36:13;1.17;;;1.05;;
23617;SDS011;18207;32.078;34.818;2023-04-06T05:38:43;1.58;;;1.02;;
23617;SDS011;18207;32.078;34.818;2023-04-06T05:41:16;1.33;;;1.20;;
23617;SDS011;18207;32.078;34.818;2023-04-06T05:43:46;1.40;;;1.10;;
23617;SDS011;18207;32.078;34.818;2023-04-06T05:46:16;1.73;;;1.20;;
23617;SDS011;18207;32.078;34.818;2023-04-06T05:48:47;1.00;;;0.90;;
23617;SDS011;18207;32.078;34.818;2023-04-06T05:51:18;1.52;;;1.10;;
23617;SDS011;18207;32.078;34.818;2023-04-06T05:53:48;1.20;;;1.10;;
23617;SDS011;18207;32.078;34.818;2023-04-06T05:56:21;1.33;;;1.13;;
23617;SDS011;18207;32.078;34.818;2023-04-06T05:58:52;1.75;;;0.90;;
23617;SDS011;18207;32.078;34.818;2023-04-06T06:01:23;1.70;;;0.90;;
23617;SDS011;18207;32.078;34.818;2023-04-06T06:03:53;1.13;;;1.00;;
23617;SDS011;18207;32.078;34.818;2023-04-06T06:06:23;1.95;;;1.00;;
23617;SDS011;18207;32.078;34.818;2023-04-06T06:08:52;1.27;;;1.10;;
23617;SDS011;18207;32.078;34.818;2023-04-06T06:11:27;2.60;;;1.00;;
23617;SDS011;18207;32.078;34.818;2023-04-06T06:13:57;0.70;;;0.70;;
23617;SDS011;18207;32.078;34.818;2023-04-06T06:16:27;0.90;;;0.60;;
23617;SDS011;18207;32.078;34.818;2023-04-06T06:18:57;0.88;;;0.77;;
23617;SDS011;18207;32.078;34.818;2023-04-06T06:21:27;0.60;;;0.50;;
23617;SDS011;18207;32.078;34.818;2023-04-06T06:23:58;0.73;;;0.60;;
23617;SDS011;18207;32.078;34.818;2023-04-06T06:26:30;0.93;;;0.60;;
23617;SDS011;18207;32.078;34.818;2023-04-06T06:29:02;0.63;;;0.60;;
23617;SDS011;18207;32.078;34.818;2023-04-06T06:31:34;1.00;;;0.45;;
23617;SDS011;18207;32.078;34.818;2023-04-06T06:34:04;0.77;;;0.60;;
23617;SDS011;18207;32.078;34.818;2023-04-06T06:36:35;0.77;;;0.70;;
23617;SDS011;18207;32.078;34.818;2023-04-06T06:39:06;0.90;;;0.75;;
23617;SDS011;18207;32.078;34.818;2023-04-06T06:41:39;0.75;;;0.60;;
23617;SDS011;18207;32.078;34.818;2023-04-06T06:44:09;1.15;;;0.75;;
23617;SDS011;18207;32.078;34.818;2023-04-06T06:46:40;0.60;;;0.60;;
23617;SDS011;18207;32.078;34.818;2023-04-06T06:49:11;0.68;;;0.55;;
23617;SDS011;18207;32.078;34.818;2023-04-06T06:51:41;0.52;;;0.43;;
23617;SDS011;18207;32.078;34.818;2023-04-06T06:54:12;1.27;;;0.77;;
23617;SDS011;18207;32.078;34.818;2023-04-06T06:56:45;1.25;;;0.70;;
23617;SDS011;18207;32.078;34.818;2023-04-06T06:59:15;0.55;;;0.50;;
23617;SDS011;18207;32.078;34.818;2023-04-06T07:01:46;0.63;;;0.63;;
23617;SDS011;18207;32.078;34.818;2023-04-06T07:04:15;0.88;;;0.70;;
23617;SDS011;18207;32.078;34.818;2023-04-06T07:06:46;1.23;;;0.73;;
23617;SDS011;18207;32.078;34.818;2023-04-06T07:09:17;1.05;;;0.68;;
23617;SDS011;18207;32.078;34.818;2023-04-06T07:11:50;0.65;;;0.57;;
23617;SDS011;18207;32.078;34.818;2023-04-06T07:48:23;0.90;;;0.30;;
23617;SDS011;18207;32.078;34.818;2023-04-06T07:51:00;3.60;;;1.00;;
23617;SDS011;18207;32.078;34.818;2023-04-06T07:53:32;0.75;;;0.45;;
23617;SDS011;18207;32.078;34.818;2023-04-06T07:56:02;0.65;;;0.40;;
23617;SDS011;18207;32.078;34.818;2023-04-06T07:58:33;1.15;;;0.88;;
23617;SDS011;18207;32.078;34.818;2023-04-06T08:01:03;1.15;;;0.73;;
23617;SDS011;18207;32.078;34.818;2023-04-06T08:03:36;0.60;;;0.60;;
23617;SDS011;18207;32.078;34.818;2023-04-06T08:06:06;1.88;;;0.88;;
23617;SDS011;18207;32.078;34.818;2023-04-06T08:08:37;0.82;;;0.73;;
23617;SDS011;18207;32.078;34.818;2023-04-06T08:11:07;4.80;;;1.10;;
23617;SDS011;18207;32.078;34.818;2023-04-06T08:13:38;2.45;;;1.05;;
23617;SDS011;18207;32.078;34.818;2023-04-06T08:16:09;2.08;;;0.50;;
23617;SDS011;18207;32.078;34.818;2023-04-06T08:18:42;0.75;;;0.68;;
23617;SDS011;18207;32.078;34.818;2023-04-06T08:21:13;0.60;;;0.50;;
23617;SDS011;18207;32.078;34.818;2023-04-06T08:23:44;1.38;;;0.80;;
23617;SDS011;18207;32.078;34.818;2023-04-06T08:26:15;0.47;;;0.40;;
23617;SDS011;18207;32.078;34.818;2023-04-06T08:28:44;0.90;;;0.68;;
23617;SDS011;18207;32.078;34.818;2023-04-06T08:31:15;0.60;;;0.57;;
23617;SDS011;18207;32.078;34.818;2023-04-06T08:33:47;0.75;;;0.75;;
23617;SDS011;18207;32.078;34.818;2023-04-06T08:36:17;0.60;;;0.60;;
23617;SDS011;18207;32.078;34.818;2023-04-06T08:38:49;0.60;;;0.47;;
23617;SDS011;18207;32.078;34.818;2023-04-06T08:41:20;1.17;;;0.73;;
23617;SDS011;18207;32.078;34.818;2023-04-06T08:43:52;0.38;;;0.35;;
23617;SDS011;18207;32.078;34.818;2023-04-06T08:46:28;0.82;;;0.57;;
23617;SDS011;18207;32.078;34.818;2023-04-06T08:49:02;1.15;;;0.57;;
23617;SDS011;18207;32.078;34.818;2023-04-06T08:51:34;1.60;;;0.60;;
23617;SDS011;18207;32.078;34.818;2023-04-06T08:54:06;0.50;;;0.50;;
23617;SDS011;18207;32.078;34.818;2023-04-06T08:56:37;1.90;;;0.60;;
23617;SDS011;18207;32.078;34.818;2023-04-06T08:59:09;0.90;;;0.60;;
23617;SDS011;18207;32.078;34.818;2023-04-06T09:01:40;0.32;;;0.32;;
23617;SDS011;18207;32.078;34.818;2023-04-06T09:04:17;0.38;;;0.30;;
23617;SDS011;18207;32.078;34.818;2023-04-06T09:06:47;1.00;;;0.82;;
23617;SDS011;18207;32.078;34.818;2023-04-06T09:09:19;0.95;;;0.70;;
23617;SDS011;18207;32.078;34.818;2023-04-06T09:11:51;0.90;;;0.85;;
23617;SDS011;18207;32.078;34.818;2023-04-06T09:14:33;0.60;;;0.60;;
23617;SDS011;18207;32.078;34.818;2023-04-06T09:17:05;0.55;;;0.55;;
23617;SDS011;18207;32.078;34.818;2023-04-06T09:19:46;0.68;;;0.68;;
23617;SDS011;18207;32.078;34.818;2023-04-06T09:22:17;0.40;;;0.40;;
23617;SDS011;18207;32.078;34.818;2023-04-06T09:24:49;0.50;;;0.50;;
23617;SDS011;18207;32.078;34.818;2023-04-06T09:27:29;0.63;;;0.63;;
23617;SDS011;18207;32.078;34.818;2023-04-06T09:30:04;1.23;;;0.75;;
23617;SDS011;18207;32.078;34.818;2023-04-06T09:32:47;0.60;;;0.60;;
23617;SDS011;18207;32.078;34.818;2023-04-06T09:35:21;1.30;;;0.70;;
23617;SDS011;18207;32.078;34.818;2023-04-06T09:37:53;0.70;;;0.60;;
23617;SDS011;18207;32.078;34.818;2023-04-06T09:40:23;0.50;;;0.50;;
23617;SDS011;18207;32.078;34.818;2023-04-06T09:42:55;1.10;;;0.80;;
23617;SDS011;18207;32.078;34.818;2023-04-06T09:45:29;1.30;;;0.63;;
23617;SDS011;18207;32.078;34.818;2023-04-06T09:48:00;0.52;;;0.50;;
23617;SDS011;18207;32.078;34.818;2023-04-06T09:50:35;0.40;;;0.40;;
23617;SDS011;18207;32.078;34.818;2023-04-06T09:53:05;0.50;;;0.47;;
23617;SDS011;18207;32.078;34.818;2023-04-06T09:55:39;1.02;;;0.55;;
23617;SDS011;18207;32.078;34.818;2023-04-06T09:58:13;0.95;;;0.60;;
23617;SDS011;18207;32.078;34.818;2023-04-06T10:00:47;1.38;;;0.57;;
23617;SDS011;18207;32.078;34.818;2023-04-06T10:03:34;0.43;;;0.40;;
23617;SDS011;18207;32.078;34.818;2023-04-06T10:06:21;1.45;;;0.50;;
23617;SDS011;18207;32.078;34.818;2023-04-06T10:08:54;0.57;;;0.50;;
23617;SDS011;18207;32.078;34.818;2023-04-06T10:11:26;1.10;;;0.70;;
23617;SDS011;18207;32.078;34.818;2023-04-06T10:13:58;0.98;;;0.60;;
23617;SDS011;18207;32.078;34.818;2023-04-06T10:16:29;0.52;;;0.30;;
23617;SDS011;18207;32.078;34.818;2023-04-06T10:19:04;0.73;;;0.30;;
23617;SDS011;18207;32.078;34.818;2023-04-06T10:21:50;0.50;;;0.50;;
23617;SDS011;18207;32.078;34.818;2023-04-06T10:24:27;1.08;;;0.70;;
23617;SDS011;18207;32.078;34.818;2023-04-06T10:26:58;0.50;;;0.50;;
23617;SDS011;18207;32.078;34.818;2023-04-06T10:29:41;0.47;;;0.47;;
23617;SDS011;18207;32.078;34.818;2023-04-06T10:32:15;0.40;;;0.40;;
23617;SDS011;18207;32.078;34.818;2023-04-06T10:34:45;0.95;;;0.70;;
23617;SDS011;18207;32.078;34.818;2023-04-06T10:37:17;0.57;;;0.40;;
23617;SDS011;18207;32.078;34.818;2023-04-06T10:39:51;0.95;;;0.68;;
23617;SDS011;18207;32.078;34.818;2023-04-06T10:42:25;0.77;;;0.40;;
23617;SDS011;18207;32.078;34.818;2023-04-06T10:45:06;0.50;;;0.50;;
23617;SDS011;18207;32.078;34.818;2023-04-06T10:47:49;1.58;;;0.80;;
23617;SDS011;18207;32.078;34.818;2023-04-06T10:50:22;0.52;;;0.50;;
23617;SDS011;18207;32.078;34.818;2023-04-06T10:53:02;0.50;;;0.50;;
23617;SDS011;18207;32.078;34.818;2023-04-06T10:55:33;0.85;;;0.55;;
23617;SDS011;18207;32.078;34.818;2023-04-06T10:58:08;0.82;;;0.68;;
23617;SDS011;18207;32.078;34.818;2023-04-06T11:00:43;0.60;;;0.50;;
23617;SDS011;18207;32.078;34.818;2023-04-06T11:03:17;0.50;;;0.50;;
23617;SDS011;18207;32.078;34.818;2023-04-06T11:05:47;1.40;;;0.80;;
23617;SDS011;18207;32.078;34.818;2023-04-06T11:08:26;0.40;;;0.40;;
23617;SDS011;18207;32.078;34.818;2023-04-06T11:11:06;0.40;;;0.40;;
23617;SDS011;18207;32.078;34.818;2023-04-06T11:13:42;0.52;;;0.40;;
23617;SDS011;18207;32.078;34.818;2023-04-06T11:16:15;0.95;;;0.55;;
23617;SDS011;18207;32.078;34.818;2023-04-06T11:18:50;0.77;;;0.68;;
23617;SDS011;18207;32.078;34.818;2023-04-06T11:21:32;1.02;;;0.60;;
23617;SDS011;18207;32.078;34.818;2023-04-06T11:24:08;0.57;;;0.40;;
23617;SDS011;18207;32.078;34.818;2023-04-06T11:26:41;0.38;;;0.30;;
23617;SDS011;18207;32.078;34.818;2023-04-06T11:29:15;0.52;;;0.52;;
23617;SDS011;18207;32.078;34.818;2023-04-06T11:31:47;0.32;;;0.30;;
23617;SDS011;18207;32.078;34.818;2023-04-06T11:34:19;0.75;;;0.43;;
23617;SDS011;18207;32.078;34.818;2023-04-06T11:36:54;1.00;;;0.57;;
23617;SDS011;18207;32.078;34.818;2023-04-06T11:39:28;0.85;;;0.57;;
23617;SDS011;18207;32.078;34.818;2023-04-06T11:41:59;0.68;;;0.68;;
23617;SDS011;18207;32.078;34.818;2023-04-06T11:44:34;0.93;;;0.60;;
23617;SDS011;18207;32.078;34.818;2023-04-06T11:47:07;0.55;;;0.55;;
23617;SDS011;18207;32.078;34.818;2023-04-06T11:49:40;0.32;;;0.32;;
23617;SDS011;18207;32.078;34.818;2023-04-06T11:52:16;0.47;;;0.47;;
23617;SDS011;18207;32.078;34.818;2023-04-06T11:54:51;0.60;;;0.60;;
23617;SDS011;18207;32.078;34.818;2023-04-06T11:57:24;1.08;;;0.70;;
23617;SDS011;18207;32.078;34.818;2023-04-06T11:59:55;0.52;;;0.40;;
23617;SDS011;18207;32.078;34.818;2023-04-06T12:02:25;0.73;;;0.60;;
23617;SDS011;18207;32.078;34.818;2023-04-06T12:04:56;0.57;;;0.45;;
23617;SDS011;18207;32.078;34.818;2023-04-06T12:07:27;0.55;;;0.43;;
23617;SDS011;18207;32.078;34.818;2023-04-06T12:10:00;0.55;;;0.50;;
23617;SDS011;18207;32.078;34.818;2023-04-06T12:12:33;0.75;;;0.40;;
23617;SDS011;18207;32.078;34.818;2023-04-06T12:15:04;0.93;;;0.65;;
23617;SDS011;18207;32.078;34.818;2023-04-06T12:17:36;0.93;;;0.50;;
23617;SDS011;18207;32.078;34.818;2023-04-06T12:20:08;0.50;;;0.40;;
23617;SDS011;18207;32.078;34.818;2023-04-06T12:22:51;0.50;;;0.40;;
23617;SDS011;18207;32.078;34.818;2023-04-06T12:25:24;0.60;;;0.50;;
23617;SDS011;18207;32.078;34.818;2023-04-06T12:27:55;0.65;;;0.30;;
23617;SDS011;18207;32.078;34.818;2023-04-06T12:30:26;0.32;;;0.30;;
23617;SDS011;18207;32.078;34.818;2023-04-06T12:32:57;0.63;;;0.63;;
23617;SDS011;18207;32.078;34.818;2023-04-06T12:35:28;0.85;;;0.50;;
23617;SDS011;18207;32.078;34.818;2023-04-06T12:38:02;0.32;;;0.32;;
23617;SDS011;18207;32.078;34.818;2023-04-06T12:40:38;0.63;;;0.43;;
23617;SDS011;18207;32.078;34.818;2023-04-06T12:43:09;0.77;;;0.47;;
23617;SDS011;18207;32.078;34.818;2023-04-06T12:45:40;0.70;;;0.60;;
23617;SDS011;18207;32.078;34.818;2023-04-06T12:48:10;0.47;;;0.30;;
23617;SDS011;18207;32.078;34.818;2023-04-06T12:50:40;1.17;;;0.57;;
23617;SDS011;18207;32.078;34.818;2023-04-06T12:53:10;1.08;;;0.60;;
23617;SDS011;18207;32.078;34.818;2023-04-06T12:55:43;0.50;;;0.50;;
23617;SDS011;18207;32.078;34.818;2023-04-06T12:58:13;0.85;;;0.70;;
23617;SDS011;18207;32.078;34.818;2023-04-06T13:00:44;0.52;;;0.43;;
23617;SDS011;18207;32.078;34.818;2023-04-06T13:03:14;0.45;;;0.40;;
23617;SDS011;18207;32.078;34.818;2023-04-06T13:05:45;0.52;;;0.50;;
23617;SDS011;18207;32.078;34.818;2023-04-06T13:08:18;0.98;;;0.60;;
23617;SDS011;18207;32.078;34.818;2023-04-06T13:10:51;0.77;;;0.70;;
23617;SDS011;18207;32.078;34.818;2023-04-06T13:13:22;0.88;;;0.40;;
23617;SDS011;18207;32.078;34.818;2023-04-06T13:15:58;0.52;;;0.30;;
23617;SDS011;18207;32.078;34.818;2023-04-06T13:18:31;0.68;;;0.43;;
23617;SDS011;18207;32.078;34.818;2023-04-06T13:21:01;0.57;;;0.40;;
23617;SDS011;18207;32.078;34.818;2023-04-06T13:23:32;0.90;;;0.50;;
23617;SDS011;18207;32.078;34.818;2023-04-06T13:26:04;0.40;;;0.30;;
23617;SDS011;18207;32.078;34.818;2023-04-06T13:28:36;0.50;;;0.45;;
23617;SDS011;18207;32.078;34.818;2023-04-06T13:31:08;0.82;;;0.55;;
23617;SDS011;18207;32.078;34.818;2023-04-06T13:33:38;0.38;;;0.30;;
23617;SDS011;18207;32.078;34.818;2023-04-06T13:36:09;0.60;;;0.60;;
23617;SDS011;18207;32.078;34.818;2023-04-06T13:38:43;0.60;;;0.40;;
23617;SDS011;18207;32.078;34.818;2023-04-06T13:41:19;0.82;;;0.60;;
23617;SDS011;18207;32.078;34.818;2023-04-06T13:43:50;1.13;;;0.65;;
23617;SDS011;18207;32.078;34.818;2023-04-06T13:46:21;1.00;;;0.57;;
23617;SDS011;18207;32.078;34.818;2023-04-06T13:48:52;0.60;;;0.35;;
23617;SDS011;18207;32.078;34.818;2023-04-06T13:51:23;1.02;;;0.60;;
23617;SDS011;18207;32.078;34.818;2023-04-06T13:53:53;0.75;;;0.47;;
23617;SDS011;18207;32.078;34.818;2023-04-06T13:56:26;1.02;;;0.60;;
23617;SDS011;18207;32.078;34.818;2023-04-06T13:58:56;0.77;;;0.60;;
23617;SDS011;18207;32.078;34.818;2023-04-06T14:01:27;1.23;;;0.60;;
23617;SDS011;18207;32.078;34.818;2023-04-06T14:03:57;0.50;;;0.50;;
23617;SDS011;18207;32.078;34.818;2023-04-06T14:06:28;0.63;;;0.63;;
23617;SDS011;18207;32.078;34.818;2023-04-06T14:08:59;1.13;;;0.80;;
23617;SDS011;18207;32.078;34.818;2023-04-06T14:11:32;0.95;;;0.60;;
23617;SDS011;18207;32.078;34.818;2023-04-06T14:14:03;0.52;;;0.40;;
23617;SDS011;18207;32.078;34.818;2023-04-06T14:16:34;0.82;;;0.60;;
23617;SDS011;18207;32.078;34.818;2023-04-06T14:19:05;0.52;;;0.45;;
23617;SDS011;18207;32.078;34.818;2023-04-06T14:21:35;0.57;;;0.30;;
23617;SDS011;18207;32.078;34.818;2023-04-06T14:24:06;0.30;;;0.30;;
23617;SDS011;18207;32.078;34.818;2023-04-06T14:26:39;0.68;;;0.68;;
23617;SDS011;18207;32.078;34.818;2023-04-06T14:29:10;0.55;;;0.55;;
23617;SDS011;18207;32.078;34.818;2023-04-06T14:31:40;2.97;;;0.63;;
23617;SDS011;18207;32.078;34.818;2023-04-06T14:34:11;0.43;;;0.43;;
23617;SDS011;18207;32.078;34.818;2023-04-06T14:36:42;0.40;;;0.40;;
23617;SDS011;18207;32.078;34.818;2023-04-06T14:39:12;0.40;;;0.40;;
23617;SDS011;18207;32.078;34.818;2023-04-06T14:41:44;0.77;;;0.52;;
23617;SDS011;18207;32.078;34.818;2023-04-06T14:44:16;1.15;;;0.60;;
23617;SDS011;18207;32.078;34.818;2023-04-06T14:46:47;0.47;;;0.43;;
23617;SDS011;18207;32.078;34.818;2023-04-06T14:49:18;0.70;;;0.60;;
23617;SDS011;18207;32.078;34.818;2023-04-06T14:51:48;0.90;;;0.52;;
23617;SDS011;18207;32.078;34.818;2023-04-06T14:54:19;2.13;;;0.60;;
23617;SDS011;18207;32.078;34.818;2023-04-06T14:56:52;1.05;;;0.60;;
23617;SDS011;18207;32.078;34.818;2023-04-06T14:59:23;1.08;;;0.70;;
23617;SDS011;18207;32.078;34.818;2023-04-06T15:01:59;1.13;;;0.55;;
23617;SDS011;18207;32.078;34.818;2023-04-06T15:04:31;0.98;;;0.40;;
23617;SDS011;18207;32.078;34.818;2023-04-06T15:07:05;1.27;;;0.70;;
23617;SDS011;18207;32.078;34.818;2023-04-06T15:09:36;0.63;;;0.60;;
23617;SDS011;18207;32.078;34.818;2023-04-06T15:12:10;1.02;;;0.60;;
23617;SDS011;18207;32.078;34.818;2023-04-06T15:14:40;0.75;;;0.75;;
23617;SDS011;18207;32.078;34.818;2023-04-06T15:17:11;0.82;;;0.82;;
23617;SDS011;18207;32.078;34.818;2023-04-06T15:19:42;0.25;;;0.22;;
23617;SDS011;18207;32.078;34.818;2023-04-06T15:22:12;0.70;;;0.40;;
23617;SDS011;18207;32.078;34.818;2023-04-06T15:24:43;0.63;;;0.45;;
23617;SDS011;18207;32.078;34.818;2023-04-06T15:27:15;1.30;;;0.68;;
23617;SDS011;18207;32.078;34.818;2023-04-06T15:29:45;0.60;;;0.30;;
23617;SDS011;18207;32.078;34.818;2023-04-06T15:32:16;0.90;;;0.50;;
23617;SDS011;18207;32.078;34.818;2023-04-06T15:34:47;0.50;;;0.50;;